sensor_id;sensor_type;location;lat;lon;timestamp;temperature;humidity
13115;DHT22;6623;52.120;8.660;2023-08-30T00:00:41;25.20;49.10
13115;DHT22;6623;52.120;8.660;2023-08-30T00:03:07;25.20;49.10
13115;DHT22;6623;52.120;8.660;2023-08-30T00:05:33;25.20;49.10
13115;DHT22;6623;52.120;8.660;2023-08-30T00:07:58;25.20;49.10
13115;DHT22;6623;52.120;8.660;2023-08-30T00:10:24;25.20;49.10
13115;DHT22;6623;52.120;8.660;2023-08-30T00:12:49;25.20;49.10
13115;DHT22;6623;52.120;8.660;2023-08-30T00:15:15;25.20;49.10
13115;DHT22;6623;52.120;8.660;2023-08-30T00:17:41;25.20;49.10
13115;DHT22;6623;52.120;8.660;2023-08-30T00:20:07;25.20;49.10
13115;DHT22;6623;52.120;8.660;2023-08-30T00:22:34;25.20;49.10
13115;DHT22;6623;52.120;8.660;2023-08-30T00:24:59;25.20;49.10
13115;DHT22;6623;52.120;8.660;2023-08-30T00:27:25;25.20;49.10
13115;DHT22;6623;52.120;8.660;2023-08-30T00:29:51;25.20;49.10
13115;DHT22;6623;52.120;8.660;2023-08-30T00:32:16;25.20;49.20
13115;DHT22;6623;52.120;8.660;2023-08-30T00:34:42;25.20;49.10
13115;DHT22;6623;52.120;8.660;2023-08-30T00:37:07;25.20;49.20
13115;DHT22;6623;52.120;8.660;2023-08-30T00:39:34;25.20;49.10
13115;DHT22;6623;52.120;8.660;2023-08-30T00:42:02;25.20;49.10
13115;DHT22;6623;52.120;8.660;2023-08-30T00:44:31;25.20;49.10
13115;DHT22;6623;52.120;8.660;2023-08-30T00:46:57;25.20;49.10
13115;DHT22;6623;52.120;8.660;2023-08-30T00:49:23;25.20;49.10
13115;DHT22;6623;52.120;8.660;2023-08-30T00:51:49;25.20;49.20
13115;DHT22;6623;52.120;8.660;2023-08-30T00:54:15;25.20;49.20
13115;DHT22;6623;52.120;8.660;2023-08-30T00:56:41;25.20;49.50
13115;DHT22;6623;52.120;8.660;2023-08-30T00:59:07;25.20;49.10
13115;DHT22;6623;52.120;8.660;2023-08-30T01:01:32;25.20;49.10
13115;DHT22;6623;52.120;8.660;2023-08-30T01:03:58;25.20;49.10
13115;DHT22;6623;52.120;8.660;2023-08-30T01:06:23;25.20;49.10
13115;DHT22;6623;52.120;8.660;2023-08-30T01:08:49;25.20;49.20
13115;DHT22;6623;52.120;8.660;2023-08-30T01:11:37;25.20;49.20
13115;DHT22;6623;52.120;8.660;2023-08-30T01:14:29;25.20;49.20
13115;DHT22;6623;52.120;8.660;2023-08-30T01:16:52;25.20;49.20
13115;DHT22;6623;52.120;8.660;2023-08-30T01:22:27;25.20;49.20
13115;DHT22;6623;52.120;8.660;2023-08-30T01:25:00;25.20;49.20
13115;DHT22;6623;52.120;8.660;2023-08-30T01:27:34;25.20;49.20
13115;DHT22;6623;52.120;8.660;2023-08-30T01:30:02;25.20;49.20
13115;DHT22;6623;52.120;8.660;2023-08-30T01:32:29;25.20;49.20
13115;DHT22;6623;52.120;8.660;2023-08-30T01:34:56;25.20;49.20
13115;DHT22;6623;52.120;8.660;2023-08-30T01:37:22;25.20;49.20
13115;DHT22;6623;52.120;8.660;2023-08-30T01:39:50;25.20;49.20
13115;DHT22;6623;52.120;8.660;2023-08-30T01:42:16;25.20;49.20
13115;DHT22;6623;52.120;8.660;2023-08-30T01:44:48;25.20;49.20
13115;DHT22;6623;52.120;8.660;2023-08-30T01:47:13;25.20;49.20
13115;DHT22;6623;52.120;8.660;2023-08-30T01:49:42;25.20;49.20
13115;DHT22;6623;52.120;8.660;2023-08-30T01:52:09;25.20;49.20
13115;DHT22;6623;52.120;8.660;2023-08-30T01:54:36;25.10;49.10
13115;DHT22;6623;52.120;8.660;2023-08-30T01:57:03;25.20;49.20
13115;DHT22;6623;52.120;8.660;2023-08-30T01:59:29;25.10;49.10
13115;DHT22;6623;52.120;8.660;2023-08-30T02:01:55;25.20;49.20
13115;DHT22;6623;52.120;8.660;2023-08-30T02:04:22;25.10;49.10
13115;DHT22;6623;52.120;8.660;2023-08-30T02:07:04;25.10;49.10
13115;DHT22;6623;52.120;8.660;2023-08-30T02:09:45;25.20;49.20
13115;DHT22;6623;52.120;8.660;2023-08-30T02:12:16;25.20;49.20
13115;DHT22;6623;52.120;8.660;2023-08-30T02:14:48;25.20;49.20
13115;DHT22;6623;52.120;8.660;2023-08-30T02:17:14;25.10;49.10
13115;DHT22;6623;52.120;8.660;2023-08-30T02:19:44;25.10;49.10
13115;DHT22;6623;52.120;8.660;2023-08-30T02:22:10;25.10;49.10
13115;DHT22;6623;52.120;8.660;2023-08-30T02:24:36;25.20;49.20
13115;DHT22;6623;52.120;8.660;2023-08-30T02:27:01;25.10;49.10
13115;DHT22;6623;52.120;8.660;2023-08-30T02:29:27;25.10;49.10
13115;DHT22;6623;52.120;8.660;2023-08-30T02:31:53;25.10;49.10
13115;DHT22;6623;52.120;8.660;2023-08-30T02:34:18;25.10;49.10
13115;DHT22;6623;52.120;8.660;2023-08-30T02:36:44;25.10;49.10
13115;DHT22;6623;52.120;8.660;2023-08-30T02:39:11;25.10;49.10
13115;DHT22;6623;52.120;8.660;2023-08-30T02:41:37;25.10;49.10
13115;DHT22;6623;52.120;8.660;2023-08-30T02:44:03;25.10;49.10
13115;DHT22;6623;52.120;8.660;2023-08-30T02:46:28;25.10;49.10
13115;DHT22;6623;52.120;8.660;2023-08-30T02:48:54;25.10;49.10
13115;DHT22;6623;52.120;8.660;2023-08-30T02:51:20;25.10;49.10
13115;DHT22;6623;52.120;8.660;2023-08-30T02:53:46;25.10;49.10
13115;DHT22;6623;52.120;8.660;2023-08-30T02:56:11;25.20;49.20
13115;DHT22;6623;52.120;8.660;2023-08-30T02:58:37;25.10;49.10
13115;DHT22;6623;52.120;8.660;2023-08-30T03:01:02;25.10;49.10
13115;DHT22;6623;52.120;8.660;2023-08-30T03:03:28;25.10;49.10
13115;DHT22;6623;52.120;8.660;2023-08-30T03:05:53;25.10;49.10
13115;DHT22;6623;52.120;8.660;2023-08-30T03:08:19;25.10;49.10
13115;DHT22;6623;52.120;8.660;2023-08-30T03:10:44;25.10;49.20
13115;DHT22;6623;52.120;8.660;2023-08-30T03:13:10;25.10;49.10
13115;DHT22;6623;52.120;8.660;2023-08-30T03:15:36;25.10;49.10
13115;DHT22;6623;52.120;8.660;2023-08-30T03:18:01;25.10;49.10
13115;DHT22;6623;52.120;8.660;2023-08-30T03:20:27;25.10;49.20
13115;DHT22;6623;52.120;8.660;2023-08-30T03:22:56;25.10;49.10
13115;DHT22;6623;52.120;8.660;2023-08-30T03:25:23;25.10;49.10
13115;DHT22;6623;52.120;8.660;2023-08-30T03:27:48;25.20;49.20
13115;DHT22;6623;52.120;8.660;2023-08-30T03:30:14;25.10;49.10
13115;DHT22;6623;52.120;8.660;2023-08-30T03:32:40;25.20;49.20
13115;DHT22;6623;52.120;8.660;2023-08-30T03:35:05;25.10;49.10
13115;DHT22;6623;52.120;8.660;2023-08-30T03:37:31;25.10;49.70
13115;DHT22;6623;52.120;8.660;2023-08-30T03:39:57;25.10;49.10
13115;DHT22;6623;52.120;8.660;2023-08-30T03:42:22;25.10;49.10
13115;DHT22;6623;52.120;8.660;2023-08-30T03:44:48;25.10;49.10
13115;DHT22;6623;52.120;8.660;2023-08-30T03:47:13;25.20;49.20
13115;DHT22;6623;52.120;8.660;2023-08-30T03:49:39;25.10;49.10
13115;DHT22;6623;52.120;8.660;2023-08-30T03:52:05;25.10;49.10
13115;DHT22;6623;52.120;8.660;2023-08-30T03:54:31;25.10;49.10
13115;DHT22;6623;52.120;8.660;2023-08-30T03:56:57;25.10;49.10
13115;DHT22;6623;52.120;8.660;2023-08-30T03:59:22;25.10;49.10
13115;DHT22;6623;52.120;8.660;2023-08-30T04:01:50;25.10;49.10
13115;DHT22;6623;52.120;8.660;2023-08-30T04:04:16;25.10;49.10
13115;DHT22;6623;52.120;8.660;2023-08-30T04:06:41;25.10;49.10
13115;DHT22;6623;52.120;8.660;2023-08-30T04:09:07;25.10;49.10
13115;DHT22;6623;52.120;8.660;2023-08-30T04:11:33;25.10;49.10
13115;DHT22;6623;52.120;8.660;2023-08-30T04:13:59;25.10;49.10
13115;DHT22;6623;52.120;8.660;2023-08-30T04:16:24;25.10;49.10
13115;DHT22;6623;52.120;8.660;2023-08-30T04:18:50;25.10;49.10
13115;DHT22;6623;52.120;8.660;2023-08-30T04:21:15;25.10;49.10
13115;DHT22;6623;52.120;8.660;2023-08-30T04:23:41;25.10;49.10
13115;DHT22;6623;52.120;8.660;2023-08-30T04:26:06;25.10;49.10
13115;DHT22;6623;52.120;8.660;2023-08-30T04:28:32;25.20;49.20
13115;DHT22;6623;52.120;8.660;2023-08-30T04:30:57;25.10;49.10
13115;DHT22;6623;52.120;8.660;2023-08-30T04:33:23;25.10;49.10
13115;DHT22;6623;52.120;8.660;2023-08-30T04:35:53;25.10;49.10
13115;DHT22;6623;52.120;8.660;2023-08-30T04:38:20;25.10;49.10
13115;DHT22;6623;52.120;8.660;2023-08-30T04:40:46;25.10;49.10
13115;DHT22;6623;52.120;8.660;2023-08-30T04:43:12;25.10;49.10
13115;DHT22;6623;52.120;8.660;2023-08-30T04:45:38;25.10;49.10
13115;DHT22;6623;52.120;8.660;2023-08-30T04:48:04;25.10;49.10
13115;DHT22;6623;52.120;8.660;2023-08-30T04:50:30;25.10;49.10
13115;DHT22;6623;52.120;8.660;2023-08-30T04:52:56;25.10;49.10
13115;DHT22;6623;52.120;8.660;2023-08-30T04:55:24;25.10;49.10
13115;DHT22;6623;52.120;8.660;2023-08-30T04:57:50;25.10;49.10
13115;DHT22;6623;52.120;8.660;2023-08-30T05:00:16;25.10;49.10
13115;DHT22;6623;52.120;8.660;2023-08-30T05:02:41;25.10;49.10
13115;DHT22;6623;52.120;8.660;2023-08-30T05:05:09;25.10;49.10
13115;DHT22;6623;52.120;8.660;2023-08-30T05:07:35;25.10;49.10
13115;DHT22;6623;52.120;8.660;2023-08-30T05:10:01;25.10;49.10
13115;DHT22;6623;52.120;8.660;2023-08-30T05:12:26;25.10;49.10
13115;DHT22;6623;52.120;8.660;2023-08-30T05:14:52;25.10;49.10
13115;DHT22;6623;52.120;8.660;2023-08-30T05:17:17;25.10;49.10
13115;DHT22;6623;52.120;8.660;2023-08-30T05:19:43;25.10;49.10
13115;DHT22;6623;52.120;8.660;2023-08-30T05:22:08;25.10;49.10
13115;DHT22;6623;52.120;8.660;2023-08-30T05:24:34;25.10;49.10
13115;DHT22;6623;52.120;8.660;2023-08-30T05:26:59;25.10;49.10
13115;DHT22;6623;52.120;8.660;2023-08-30T05:29:25;25.10;49.10
13115;DHT22;6623;52.120;8.660;2023-08-30T05:31:50;25.10;49.70
13115;DHT22;6623;52.120;8.660;2023-08-30T05:34:16;25.10;49.10
13115;DHT22;6623;52.120;8.660;2023-08-30T05:36:41;25.10;49.10
13115;DHT22;6623;52.120;8.660;2023-08-30T05:39:07;25.10;49.10
13115;DHT22;6623;52.120;8.660;2023-08-30T05:41:33;25.10;49.10
13115;DHT22;6623;52.120;8.660;2023-08-30T05:43:58;25.10;49.10
13115;DHT22;6623;52.120;8.660;2023-08-30T05:46:24;25.10;49.10
13115;DHT22;6623;52.120;8.660;2023-08-30T05:48:49;25.10;49.10
13115;DHT22;6623;52.120;8.660;2023-08-30T05:51:15;25.10;49.70
13115;DHT22;6623;52.120;8.660;2023-08-30T05:53:40;25.10;49.10
13115;DHT22;6623;52.120;8.660;2023-08-30T05:56:06;25.10;49.10
13115;DHT22;6623;52.120;8.660;2023-08-30T05:58:32;25.10;49.00
13115;DHT22;6623;52.120;8.660;2023-08-30T06:00:58;25.10;49.10
13115;DHT22;6623;52.120;8.660;2023-08-30T06:03:25;25.10;49.10
13115;DHT22;6623;52.120;8.660;2023-08-30T06:05:51;25.10;49.10
13115;DHT22;6623;52.120;8.660;2023-08-30T06:08:17;25.10;49.10
13115;DHT22;6623;52.120;8.660;2023-08-30T06:10:43;25.10;49.10
13115;DHT22;6623;52.120;8.660;2023-08-30T06:13:09;25.10;49.10
13115;DHT22;6623;52.120;8.660;2023-08-30T06:15:35;25.10;49.10
13115;DHT22;6623;52.120;8.660;2023-08-30T06:18:03;25.10;49.10
13115;DHT22;6623;52.120;8.660;2023-08-30T06:20:28;25.00;49.00
13115;DHT22;6623;52.120;8.660;2023-08-30T06:22:54;25.00;49.00
13115;DHT22;6623;52.120;8.660;2023-08-30T06:25:19;25.10;49.10
13115;DHT22;6623;52.120;8.660;2023-08-30T06:27:56;25.10;49.10
13115;DHT22;6623;52.120;8.660;2023-08-30T06:30:22;25.10;49.10
13115;DHT22;6623;52.120;8.660;2023-08-30T06:32:48;25.10;49.10
13115;DHT22;6623;52.120;8.660;2023-08-30T06:35:14;25.00;49.00
13115;DHT22;6623;52.120;8.660;2023-08-30T06:37:40;25.00;49.00
13115;DHT22;6623;52.120;8.660;2023-08-30T06:40:06;25.10;49.00
13115;DHT22;6623;52.120;8.660;2023-08-30T06:42:32;25.10;49.00
13115;DHT22;6623;52.120;8.660;2023-08-30T06:44:57;25.10;49.10
13115;DHT22;6623;52.120;8.660;2023-08-30T06:47:23;25.10;49.10
13115;DHT22;6623;52.120;8.660;2023-08-30T06:49:48;25.00;49.00
13115;DHT22;6623;52.120;8.660;2023-08-30T06:52:14;25.00;49.00
13115;DHT22;6623;52.120;8.660;2023-08-30T06:54:39;25.10;49.10
13115;DHT22;6623;52.120;8.660;2023-08-30T06:57:05;25.10;49.10
13115;DHT22;6623;52.120;8.660;2023-08-30T06:59:32;25.00;49.00
13115;DHT22;6623;52.120;8.660;2023-08-30T07:01:58;25.00;49.00
13115;DHT22;6623;52.120;8.660;2023-08-30T07:04:23;25.00;49.00
13115;DHT22;6623;52.120;8.660;2023-08-30T07:06:51;25.00;49.00
13115;DHT22;6623;52.120;8.660;2023-08-30T07:09:17;25.00;49.00
13115;DHT22;6623;52.120;8.660;2023-08-30T07:11:43;25.00;49.00
13115;DHT22;6623;52.120;8.660;2023-08-30T07:14:10;25.00;49.00
13115;DHT22;6623;52.120;8.660;2023-08-30T07:16:36;25.10;49.10
13115;DHT22;6623;52.120;8.660;2023-08-30T07:19:02;25.00;49.00
13115;DHT22;6623;52.120;8.660;2023-08-30T07:21:28;25.10;49.00
13115;DHT22;6623;52.120;8.660;2023-08-30T07:23:53;25.00;49.00
13115;DHT22;6623;52.120;8.660;2023-08-30T07:26:19;25.00;49.00
13115;DHT22;6623;52.120;8.660;2023-08-30T07:28:45;25.00;49.00
13115;DHT22;6623;52.120;8.660;2023-08-30T07:31:11;25.10;49.10
13115;DHT22;6623;52.120;8.660;2023-08-30T07:33:39;25.10;49.10
13115;DHT22;6623;52.120;8.660;2023-08-30T07:36:05;25.00;49.00
13115;DHT22;6623;52.120;8.660;2023-08-30T07:38:31;25.10;49.10
13115;DHT22;6623;52.120;8.660;2023-08-30T07:40:57;25.00;49.10
13115;DHT22;6623;52.120;8.660;2023-08-30T07:43:23;25.00;49.00
13115;DHT22;6623;52.120;8.660;2023-08-30T07:45:48;25.00;49.10
13115;DHT22;6623;52.120;8.660;2023-08-30T07:48:14;25.00;49.10
13115;DHT22;6623;52.120;8.660;2023-08-30T07:50:39;25.00;49.10
13115;DHT22;6623;52.120;8.660;2023-08-30T07:53:05;25.00;49.10
13115;DHT22;6623;52.120;8.660;2023-08-30T07:55:30;25.00;49.10
13115;DHT22;6623;52.120;8.660;2023-08-30T07:57:56;25.00;49.10
13115;DHT22;6623;52.120;8.660;2023-08-30T08:00:21;25.00;49.10
13115;DHT22;6623;52.120;8.660;2023-08-30T08:02:47;25.10;49.10
13115;DHT22;6623;52.120;8.660;2023-08-30T08:05:12;25.10;49.10
13115;DHT22;6623;52.120;8.660;2023-08-30T08:07:38;25.10;49.10
13115;DHT22;6623;52.120;8.660;2023-08-30T08:10:06;25.10;49.10
13115;DHT22;6623;52.120;8.660;2023-08-30T08:12:33;25.10;49.10
13115;DHT22;6623;52.120;8.660;2023-08-30T08:14:58;25.10;49.10
13115;DHT22;6623;52.120;8.660;2023-08-30T08:17:24;25.10;49.10
13115;DHT22;6623;52.120;8.660;2023-08-30T08:19:50;25.10;49.10
13115;DHT22;6623;52.120;8.660;2023-08-30T08:22:15;25.10;49.10
13115;DHT22;6623;52.120;8.660;2023-08-30T08:24:41;25.10;49.10
13115;DHT22;6623;52.120;8.660;2023-08-30T08:27:09;25.10;49.80
13115;DHT22;6623;52.120;8.660;2023-08-30T08:29:34;25.10;49.10
13115;DHT22;6623;52.120;8.660;2023-08-30T08:32:00;25.10;49.10
13115;DHT22;6623;52.120;8.660;2023-08-30T08:34:26;25.00;49.10
13115;DHT22;6623;52.120;8.660;2023-08-30T08:36:51;25.10;49.10
13115;DHT22;6623;52.120;8.660;2023-08-30T08:39:17;25.10;49.10
13115;DHT22;6623;52.120;8.660;2023-08-30T08:41:44;25.10;49.20
13115;DHT22;6623;52.120;8.660;2023-08-30T08:44:11;25.10;49.20
13115;DHT22;6623;52.120;8.660;2023-08-30T08:46:38;25.10;49.20
13115;DHT22;6623;52.120;8.660;2023-08-30T08:49:15;25.10;49.20
13115;DHT22;6623;52.120;8.660;2023-08-30T08:51:42;25.00;49.10
13115;DHT22;6623;52.120;8.660;2023-08-30T08:54:08;25.00;49.20
13115;DHT22;6623;52.120;8.660;2023-08-30T08:56:35;25.10;49.20
13115;DHT22;6623;52.120;8.660;2023-08-30T08:59:01;25.00;49.80
13115;DHT22;6623;52.120;8.660;2023-08-30T09:01:27;25.00;49.20
13115;DHT22;6623;52.120;8.660;2023-08-30T09:03:53;25.00;49.20
13115;DHT22;6623;52.120;8.660;2023-08-30T09:06:19;25.00;49.20
13115;DHT22;6623;52.120;8.660;2023-08-30T09:08:45;25.00;49.20
13115;DHT22;6623;52.120;8.660;2023-08-30T09:11:11;25.00;49.20
13115;DHT22;6623;52.120;8.660;2023-08-30T09:13:36;25.00;49.20
13115;DHT22;6623;52.120;8.660;2023-08-30T09:16:02;25.00;49.30
13115;DHT22;6623;52.120;8.660;2023-08-30T09:18:28;25.00;49.30
13115;DHT22;6623;52.120;8.660;2023-08-30T09:23:33;25.00;49.30
13115;DHT22;6623;52.120;8.660;2023-08-30T09:25:59;25.00;49.30
13115;DHT22;6623;52.120;8.660;2023-08-30T09:28:26;25.00;49.30
13115;DHT22;6623;52.120;8.660;2023-08-30T09:30:54;25.00;49.30
13115;DHT22;6623;52.120;8.660;2023-08-30T09:33:23;25.00;49.30
13115;DHT22;6623;52.120;8.660;2023-08-30T09:35:49;25.00;49.30
13115;DHT22;6623;52.120;8.660;2023-08-30T09:38:21;25.00;50.00
13115;DHT22;6623;52.120;8.660;2023-08-30T09:40:46;25.00;49.30
13115;DHT22;6623;52.120;8.660;2023-08-30T09:43:13;25.00;49.30
13115;DHT22;6623;52.120;8.660;2023-08-30T09:45:40;25.00;49.30
13115;DHT22;6623;52.120;8.660;2023-08-30T09:48:07;25.00;49.30
13115;DHT22;6623;52.120;8.660;2023-08-30T09:50:34;25.00;49.30
13115;DHT22;6623;52.120;8.660;2023-08-30T09:53:07;25.00;49.30
13115;DHT22;6623;52.120;8.660;2023-08-30T09:55:35;25.00;49.30
13115;DHT22;6623;52.120;8.660;2023-08-30T09:58:02;25.00;49.30
13115;DHT22;6623;52.120;8.660;2023-08-30T10:00:30;25.00;49.40
13115;DHT22;6623;52.120;8.660;2023-08-30T10:02:58;25.00;49.30
13115;DHT22;6623;52.120;8.660;2023-08-30T10:05:24;25.00;49.30
13115;DHT22;6623;52.120;8.660;2023-08-30T10:07:54;25.00;49.30
13115;DHT22;6623;52.120;8.660;2023-08-30T10:10:22;25.00;49.30
13115;DHT22;6623;52.120;8.660;2023-08-30T10:12:48;25.00;49.30
13115;DHT22;6623;52.120;8.660;2023-08-30T10:15:14;25.00;49.30
13115;DHT22;6623;52.120;8.660;2023-08-30T10:17:44;25.00;49.30
13115;DHT22;6623;52.120;8.660;2023-08-30T10:20:10;25.00;49.30
13115;DHT22;6623;52.120;8.660;2023-08-30T10:22:38;25.00;49.30
13115;DHT22;6623;52.120;8.660;2023-08-30T10:25:20;25.00;49.30
13115;DHT22;6623;52.120;8.660;2023-08-30T10:27:48;25.00;49.30
13115;DHT22;6623;52.120;8.660;2023-08-30T10:30:16;25.00;49.30
13115;DHT22;6623;52.120;8.660;2023-08-30T10:32:43;25.00;49.30
13115;DHT22;6623;52.120;8.660;2023-08-30T10:35:13;25.00;49.30
13115;DHT22;6623;52.120;8.660;2023-08-30T10:37:39;25.00;49.30
13115;DHT22;6623;52.120;8.660;2023-08-30T10:40:06;25.00;49.30
13115;DHT22;6623;52.120;8.660;2023-08-30T10:42:32;25.00;49.30
13115;DHT22;6623;52.120;8.660;2023-08-30T10:45:04;25.00;49.30
13115;DHT22;6623;52.120;8.660;2023-08-30T10:47:39;25.00;49.30
13115;DHT22;6623;52.120;8.660;2023-08-30T10:50:07;25.00;49.30
13115;DHT22;6623;52.120;8.660;2023-08-30T10:52:33;25.00;49.30
13115;DHT22;6623;52.120;8.660;2023-08-30T10:55:10;24.90;49.20
13115;DHT22;6623;52.120;8.660;2023-08-30T10:57:36;24.90;49.20
13115;DHT22;6623;52.120;8.660;2023-08-30T11:02:32;25.00;49.20
13115;DHT22;6623;52.120;8.660;2023-08-30T11:04:59;25.00;49.20
13115;DHT22;6623;52.120;8.660;2023-08-30T11:07:25;24.90;49.10
13115;DHT22;6623;52.120;8.660;2023-08-30T11:09:54;25.00;49.20
13115;DHT22;6623;52.120;8.660;2023-08-30T11:12:20;24.90;49.20
13115;DHT22;6623;52.120;8.660;2023-08-30T11:14:49;24.90;49.20
13115;DHT22;6623;52.120;8.660;2023-08-30T11:17:19;24.90;49.20
13115;DHT22;6623;52.120;8.660;2023-08-30T11:19:45;25.00;49.20
13115;DHT22;6623;52.120;8.660;2023-08-30T11:22:12;25.00;49.20
13115;DHT22;6623;52.120;8.660;2023-08-30T11:24:38;25.00;49.10
13115;DHT22;6623;52.120;8.660;2023-08-30T11:27:04;25.00;49.10
13115;DHT22;6623;52.120;8.660;2023-08-30T11:29:30;24.90;49.10
13115;DHT22;6623;52.120;8.660;2023-08-30T11:31:55;24.90;49.10
13115;DHT22;6623;52.120;8.660;2023-08-30T11:34:21;24.90;49.10
13115;DHT22;6623;52.120;8.660;2023-08-30T11:36:48;24.90;49.10
13115;DHT22;6623;52.120;8.660;2023-08-30T11:39:18;24.90;49.10
13115;DHT22;6623;52.120;8.660;2023-08-30T11:41:44;24.90;49.10
13115;DHT22;6623;52.120;8.660;2023-08-30T11:44:10;24.90;49.00
13115;DHT22;6623;52.120;8.660;2023-08-30T11:46:36;25.00;49.10
13115;DHT22;6623;52.120;8.660;2023-08-30T11:49:01;24.90;49.00
13115;DHT22;6623;52.120;8.660;2023-08-30T11:51:28;24.90;49.00
13115;DHT22;6623;52.120;8.660;2023-08-30T11:53:55;24.90;49.00
13115;DHT22;6623;52.120;8.660;2023-08-30T11:56:21;24.90;49.00
13115;DHT22;6623;52.120;8.660;2023-08-30T11:58:48;24.90;49.00
13115;DHT22;6623;52.120;8.660;2023-08-30T12:01:14;25.00;49.00
13115;DHT22;6623;52.120;8.660;2023-08-30T12:03:40;24.90;49.00
13115;DHT22;6623;52.120;8.660;2023-08-30T12:06:11;25.00;49.00
13115;DHT22;6623;52.120;8.660;2023-08-30T12:08:38;25.00;48.90
13115;DHT22;6623;52.120;8.660;2023-08-30T12:11:03;24.90;48.90
13115;DHT22;6623;52.120;8.660;2023-08-30T12:13:31;24.90;48.90
13115;DHT22;6623;52.120;8.660;2023-08-30T12:15:58;24.90;48.90
13115;DHT22;6623;52.120;8.660;2023-08-30T12:18:33;24.90;48.90
13115;DHT22;6623;52.120;8.660;2023-08-30T12:21:00;24.90;48.90
13115;DHT22;6623;52.120;8.660;2023-08-30T12:23:28;24.90;48.90
13115;DHT22;6623;52.120;8.660;2023-08-30T12:26:12;24.90;48.90
13115;DHT22;6623;52.120;8.660;2023-08-30T12:28:41;24.90;48.90
13115;DHT22;6623;52.120;8.660;2023-08-30T12:31:09;24.90;48.90
13115;DHT22;6623;52.120;8.660;2023-08-30T12:33:36;24.90;48.80
13115;DHT22;6623;52.120;8.660;2023-08-30T12:36:03;24.90;48.90
13115;DHT22;6623;52.120;8.660;2023-08-30T12:38:29;24.90;48.80
13115;DHT22;6623;52.120;8.660;2023-08-30T12:40:56;24.90;48.80
13115;DHT22;6623;52.120;8.660;2023-08-30T12:43:22;24.90;48.80
13115;DHT22;6623;52.120;8.660;2023-08-30T12:45:49;24.90;48.80
13115;DHT22;6623;52.120;8.660;2023-08-30T12:48:15;24.90;48.80
13115;DHT22;6623;52.120;8.660;2023-08-30T12:50:45;24.90;48.80
13115;DHT22;6623;52.120;8.660;2023-08-30T12:53:12;24.90;48.70
13115;DHT22;6623;52.120;8.660;2023-08-30T12:55:38;24.90;48.80
13115;DHT22;6623;52.120;8.660;2023-08-30T12:58:07;24.90;48.80
13115;DHT22;6623;52.120;8.660;2023-08-30T13:00:33;24.90;48.70
13115;DHT22;6623;52.120;8.660;2023-08-30T13:02:59;24.90;48.80
13115;DHT22;6623;52.120;8.660;2023-08-30T13:05:25;24.90;48.70
13115;DHT22;6623;52.120;8.660;2023-08-30T13:07:51;24.90;48.70
13115;DHT22;6623;52.120;8.660;2023-08-30T13:10:16;24.90;48.70
13115;DHT22;6623;52.120;8.660;2023-08-30T13:12:42;24.90;48.60
13115;DHT22;6623;52.120;8.660;2023-08-30T13:15:08;24.90;48.60
13115;DHT22;6623;52.120;8.660;2023-08-30T13:17:34;24.90;48.60
13115;DHT22;6623;52.120;8.660;2023-08-30T13:20:00;24.90;48.60
13115;DHT22;6623;52.120;8.660;2023-08-30T13:22:26;24.90;48.50
13115;DHT22;6623;52.120;8.660;2023-08-30T13:24:52;24.90;48.50
13115;DHT22;6623;52.120;8.660;2023-08-30T13:27:18;24.90;48.50
13115;DHT22;6623;52.120;8.660;2023-08-30T13:29:44;24.90;48.50
13115;DHT22;6623;52.120;8.660;2023-08-30T13:32:09;24.90;48.50
13115;DHT22;6623;52.120;8.660;2023-08-30T13:34:35;24.90;48.50
13115;DHT22;6623;52.120;8.660;2023-08-30T13:37:01;24.90;48.50
13115;DHT22;6623;52.120;8.660;2023-08-30T13:39:26;24.80;48.50
13115;DHT22;6623;52.120;8.660;2023-08-30T13:41:52;24.90;48.50
13115;DHT22;6623;52.120;8.660;2023-08-30T13:44:17;24.90;48.50
13115;DHT22;6623;52.120;8.660;2023-08-30T13:46:44;24.90;48.50
13115;DHT22;6623;52.120;8.660;2023-08-30T13:49:09;24.90;48.50
13115;DHT22;6623;52.120;8.660;2023-08-30T13:51:35;24.90;48.50
13115;DHT22;6623;52.120;8.660;2023-08-30T13:54:01;24.90;48.50
13115;DHT22;6623;52.120;8.660;2023-08-30T13:56:27;24.90;48.60
13115;DHT22;6623;52.120;8.660;2023-08-30T13:58:53;24.90;48.50
13115;DHT22;6623;52.120;8.660;2023-08-30T14:01:18;24.90;48.60
13115;DHT22;6623;52.120;8.660;2023-08-30T14:03:44;24.90;48.50
13115;DHT22;6623;52.120;8.660;2023-08-30T14:06:09;25.00;48.60
13115;DHT22;6623;52.120;8.660;2023-08-30T14:08:35;25.00;48.50
13115;DHT22;6623;52.120;8.660;2023-08-30T14:11:01;25.10;48.50
13115;DHT22;6623;52.120;8.660;2023-08-30T14:13:26;25.10;48.40
13115;DHT22;6623;52.120;8.660;2023-08-30T14:15:58;25.20;48.40
13115;DHT22;6623;52.120;8.660;2023-08-30T14:18:23;25.20;48.20
13115;DHT22;6623;52.120;8.660;2023-08-30T14:20:49;25.30;48.20
13115;DHT22;6623;52.120;8.660;2023-08-30T14:23:14;25.30;48.10
13115;DHT22;6623;52.120;8.660;2023-08-30T14:25:40;25.40;48.00
13115;DHT22;6623;52.120;8.660;2023-08-30T14:28:05;25.50;48.00
13115;DHT22;6623;52.120;8.660;2023-08-30T14:30:31;25.60;47.90
13115;DHT22;6623;52.120;8.660;2023-08-30T14:32:56;25.60;47.80
13115;DHT22;6623;52.120;8.660;2023-08-30T14:35:22;25.70;47.70
13115;DHT22;6623;52.120;8.660;2023-08-30T14:37:50;25.70;47.60
13115;DHT22;6623;52.120;8.660;2023-08-30T14:40:16;25.80;47.50
13115;DHT22;6623;52.120;8.660;2023-08-30T14:42:42;25.80;47.40
13115;DHT22;6623;52.120;8.660;2023-08-30T14:45:07;25.90;47.40
13115;DHT22;6623;52.120;8.660;2023-08-30T14:47:33;25.90;47.30
13115;DHT22;6623;52.120;8.660;2023-08-30T14:49:59;25.90;47.20
13115;DHT22;6623;52.120;8.660;2023-08-30T14:52:28;26.00;47.10
13115;DHT22;6623;52.120;8.660;2023-08-30T14:54:53;26.10;47.10
13115;DHT22;6623;52.120;8.660;2023-08-30T14:57:19;26.10;47.00
13115;DHT22;6623;52.120;8.660;2023-08-30T14:59:45;26.20;46.90
13115;DHT22;6623;52.120;8.660;2023-08-30T15:02:11;26.20;46.90
13115;DHT22;6623;52.120;8.660;2023-08-30T15:04:36;26.20;46.80
13115;DHT22;6623;52.120;8.660;2023-08-30T15:07:02;26.20;46.80
13115;DHT22;6623;52.120;8.660;2023-08-30T15:09:30;26.20;46.80
13115;DHT22;6623;52.120;8.660;2023-08-30T15:11:55;26.20;46.80
13115;DHT22;6623;52.120;8.660;2023-08-30T15:14:23;26.10;46.70
13115;DHT22;6623;52.120;8.660;2023-08-30T15:16:49;26.10;46.80
13115;DHT22;6623;52.120;8.660;2023-08-30T15:19:14;26.10;46.80
13115;DHT22;6623;52.120;8.660;2023-08-30T15:21:40;26.10;46.90
13115;DHT22;6623;52.120;8.660;2023-08-30T15:24:05;26.00;46.90
13115;DHT22;6623;52.120;8.660;2023-08-30T15:26:31;26.00;47.00
13115;DHT22;6623;52.120;8.660;2023-08-30T15:28:57;25.90;47.00
13115;DHT22;6623;52.120;8.660;2023-08-30T15:31:22;25.90;47.10
13115;DHT22;6623;52.120;8.660;2023-08-30T15:33:48;25.80;47.20
13115;DHT22;6623;52.120;8.660;2023-08-30T15:36:13;25.80;47.20
13115;DHT22;6623;52.120;8.660;2023-08-30T15:38:39;25.70;47.30
13115;DHT22;6623;52.120;8.660;2023-08-30T15:41:08;25.70;47.40
13115;DHT22;6623;52.120;8.660;2023-08-30T15:43:34;25.70;47.50
13115;DHT22;6623;52.120;8.660;2023-08-30T15:46:10;25.60;47.50
13115;DHT22;6623;52.120;8.660;2023-08-30T15:48:36;25.50;47.50